OIMB 
Birjand Airport
Birjand, Iran 
ICAOStatus
OIMBOperational
LatitudeLongitude
32° 53' 53" N59° 15' 57" E
32.89805659.266111
Local Time (DST+5)UTC (GMT+4)
04-19-2014 09:31 pm04-19-2014 17:01
Sunrise-SunsetLocalUTC
Begin Civil Twilight05:31 am01:01
Sunrise05:56 am01:26
Sunset07:07 pm14:37
End Civil Twilight07:32 pm15:02

Current Weather

METARObservedFlight Conditions

OIMB 191600Z 06012KT CAVOK 20/00 Q1017

Sat, Apr 19, 2014 @ 16:00 UTC(Z)

(1 Hour, 1 Minute ago)

VFR

(Visual Flight Rules)

WindVisibilityCloudsConditions
060° at 12 knots (22 kph)
10 km or more
  • Clear skies
  • No significant weather
TemperaturesReadingsPrecipitation
Current Temp20°C (68°F)
Dewpoint0°C (32°F)
Humidity26%
Altimeter30.03"Hg
Sea Level Pressure1017mb
Field Elevation4891.73'
None Recorded

Additional weather within a 185.2km radius of OIMB

Location METAR
OIMD

170.2km N (342°)

1 hour, 1 minute ago
VFR VFR    MVFR MVFR    IFR IFR    LIFR LIFR    Unknown Unknown

Previous 24 hour Weather Graphs

  Loading...

CheckWX.com is intended as a tool to help pilots better visualize weather data.   It is not intended as a substitute for an official weather briefing obtained from a Flight Service Station.
CheckWX.com does not meet the FAA requirements for an official pre-flight weather briefing.   Therefore, it's important that pilots still call and obtain an official FSS pre-flight weather briefing.